Time;durP1;ratioP1;P1;durP2;ratioP2;P2;SDS_P1;SDS_P2;PMS_P1;PMS_P2;Temp;Humidity;BMP_temperature;BMP_pressure;BME280_temperature;BME280_humidity;BME280_pressure;Samples;Min_cycle;Max_cycle;Signal;HPM_P1;HPM_P2
2023/09/30 00:01:27;;;;;;;9.23;5.60;;;;;;;14.95;100.00;93254.28;5012518;28;20037;-80
2023/09/30 00:03:53;;;;;;;8.30;5.90;;;;;;;14.93;100.00;93251.94;5016707;28;20033;-80
2023/09/30 00:06:19;;;;;;;7.40;5.55;;;;;;;14.92;100.00;93252.22;5019530;28;20176;-80
2023/09/30 00:08:45;;;;;;;9.82;5.60;;;;;;;14.91;100.00;93251.47;5013634;28;20124;-79
2023/09/30 00:11:11;;;;;;;8.23;5.40;;;;;;;14.92;100.00;93247.72;5020316;28;20088;-80
2023/09/30 00:13:36;;;;;;;7.82;5.30;;;;;;;14.91;100.00;93246.19;5023637;28;20268;-80
2023/09/30 00:16:02;;;;;;;6.75;5.25;;;;;;;14.89;100.00;93242.28;5014676;28;20034;-80
2023/09/30 00:18:28;;;;;;;8.48;5.20;;;;;;;14.91;100.00;93248.03;5029501;28;20116;-81
2023/09/30 00:20:53;;;;;;;7.60;5.63;;;;;;;14.89;100.00;93250.97;5012795;28;20025;-80
2023/09/30 00:23:21;;;;;;;10.68;6.00;;;;;;;14.89;100.00;93250.19;5026119;28;20033;-80
2023/09/30 00:25:48;;;;;;;8.45;5.50;;;;;;;14.88;100.00;93245.97;5013277;28;20054;-81
2023/09/30 00:28:14;;;;;;;10.10;5.82;;;;;;;14.86;100.00;93238.38;5029628;28;20524;-81
2023/09/30 00:30:40;;;;;;;8.00;5.40;;;;;;;14.85;100.00;93236.03;5015916;28;20125;-81
2023/09/30 00:33:05;;;;;;;7.72;5.00;;;;;;;14.83;100.00;93238.94;5027989;28;20036;-81
2023/09/30 00:35:32;;;;;;;9.68;5.60;;;;;;;14.79;100.00;93240.59;5037570;28;20522;-80
2023/09/30 00:37:58;;;;;;;12.40;6.95;;;;;;;14.75;100.00;93240.44;5030605;28;20107;-81
2023/09/30 00:40:24;;;;;;;8.10;5.15;;;;;;;14.72;100.00;93246.28;5029426;28;20116;-80
2023/09/30 00:42:49;;;;;;;8.63;5.47;;;;;;;14.71;100.00;93239.44;5024778;28;20034;-80
2023/09/30 00:45:15;;;;;;;10.48;5.43;;;;;;;14.70;100.00;93237.91;5035680;28;20525;-80
2023/09/30 00:47:40;;;;;;;7.97;5.38;;;;;;;14.71;100.00;93226.28;5000737;28;20030;-80
2023/09/30 00:50:08;;;;;;;7.80;5.20;;;;;;;14.74;100.00;93232.81;5017477;28;20134;-80
2023/09/30 00:52:36;;;;;;;7.25;5.35;;;;;;;14.71;100.00;93226.28;5026674;28;20402;-80
2023/09/30 00:55:05;;;;;;;9.63;5.63;;;;;;;14.71;100.00;93226.28;5025322;28;20350;-80
2023/09/30 00:57:31;;;;;;;8.75;5.55;;;;;;;14.68;100.00;93224.25;5029765;28;20504;-81
2023/09/30 00:59:58;;;;;;;8.73;5.93;;;;;;;14.67;100.00;93222.66;5024127;28;20099;-81
2023/09/30 01:02:24;;;;;;;9.45;6.05;;;;;;;14.63;100.00;93221.69;5015791;28;20501;-81
2023/09/30 01:04:50;;;;;;;7.75;5.63;;;;;;;14.61;100.00;93223.81;5017517;28;20142;-81
2023/09/30 01:07:16;;;;;;;9.60;5.68;;;;;;;14.63;100.00;93221.69;5025682;28;20037;-81
2023/09/30 01:09:42;;;;;;;7.72;5.68;;;;;;;14.63;100.00;93226.16;5023024;28;20465;-79
2023/09/30 01:12:09;;;;;;;11.73;5.50;;;;;;;14.63;100.00;93224.31;5025471;28;20033;-81
2023/09/30 01:14:38;;;;;;;9.32;5.68;;;;;;;14.64;100.00;93225.88;5019958;28;20044;-80
2023/09/30 01:17:04;;;;;;;8.50;6.07;;;;;;;14.65;100.00;93229.31;5015831;28;20049;-81
2023/09/30 01:19:30;;;;;;;7.88;5.75;;;;;;;14.60;100.00;93222.28;4996285;28;20494;-80
2023/09/30 01:21:59;;;;;;;10.32;6.00;;;;;;;14.61;100.00;93217.78;5012759;28;20034;-80
2023/09/30 01:24:26;;;;;;;10.45;6.25;;;;;;;14.56;100.00;93210.75;5022941;28;20041;-80
2023/09/30 01:26:52;;;;;;;9.80;6.03;;;;;;;14.58;100.00;93212.00;5027939;28;20379;-80
2023/09/30 01:29:19;;;;;;;10.32;5.65;;;;;;;14.59;100.00;93210.19;5008565;28;20124;-80
2023/09/30 01:31:47;;;;;;;8.27;5.60;;;;;;;14.60;100.00;93203.84;5027867;28;20086;-81
2023/09/30 01:34:15;;;;;;;12.82;6.35;;;;;;;14.58;100.00;93206.75;5034241;28;20041;-80
2023/09/30 01:36:42;;;;;;;9.57;6.32;;;;;;;14.60;100.00;93201.19;5023369;28;20068;-80
2023/09/30 01:39:10;;;;;;;9.00;5.95;;;;;;;14.61;100.00;93208.00;5016663;28;20042;-80
2023/09/30 01:41:37;;;;;;;7.97;6.10;;;;;;;14.61;100.00;93202.75;5016648;28;20034;-81
2023/09/30 01:44:05;;;;;;;8.80;5.82;;;;;;;14.59;100.00;93204.91;5025091;28;20048;-81
2023/09/30 01:46:31;;;;;;;9.13;5.68;;;;;;;14.58;100.00;93201.47;5021519;28;20421;-81
2023/09/30 01:48:57;;;;;;;10.63;5.95;;;;;;;14.57;100.00;93196.53;5017089;28;20044;-81
2023/09/30 01:51:23;;;;;;;9.90;6.30;;;;;;;14.49;100.00;93186.63;5015771;28;20034;-81
2023/09/30 01:53:50;;;;;;;9.40;6.07;;;;;;;14.55;100.00;93194.16;5014723;28;20045;-81
2023/09/30 01:56:16;;;;;;;7.50;5.90;;;;;;;14.54;100.00;93194.44;5016367;28;20041;-82
2023/09/30 01:58:42;;;;;;;11.60;6.70;;;;;;;14.53;100.00;93195.50;5030473;28;20041;-81
2023/09/30 02:01:08;;;;;;;9.30;6.28;;;;;;;14.51;100.00;93192.38;5024730;28;20460;-80
2023/09/30 02:03:34;;;;;;;10.27;6.18;;;;;;;14.50;100.00;93191.63;5015302;28;20403;-80
2023/09/30 02:06:00;;;;;;;10.25;6.47;;;;;;;14.50;100.00;93196.88;5021441;28;20034;-81
2023/09/30 02:08:26;;;;;;;11.00;6.47;;;;;;;14.50;100.00;93190.81;5022123;28;20054;-80
2023/09/30 02:10:52;;;;;;;10.77;6.30;;;;;;;14.48;100.00;93196.38;5014290;28;20029;-81
2023/09/30 02:13:18;;;;;;;8.85;6.05;;;;;;;14.47;100.00;93188.78;4999135;28;20053;-80
2023/09/30 02:15:44;;;;;;;8.75;6.53;;;;;;;14.46;100.00;93190.63;5014598;28;20033;-80
2023/09/30 02:18:10;;;;;;;8.43;5.85;;;;;;;14.44;100.00;93182.25;5018415;28;20088;-81
2023/09/30 02:20:39;;;;;;;10.43;5.85;;;;;;;14.41;100.00;93182.84;4993633;28;20025;-80
2023/09/30 02:23:10;;;;;;;12.52;5.97;;;;;;;14.41;100.00;93185.47;5035902;28;20060;-80
2023/09/30 02:25:39;;;;;;;7.18;5.70;;;;;;;14.38;100.00;93184.16;5018860;28;20030;-81
2023/09/30 02:28:06;;;;;;;7.93;5.70;;;;;;;14.40;100.00;93191.03;5022403;28;20053;-81
2023/09/30 02:30:32;;;;;;;9.10;5.60;;;;;;;14.34;100.00;93185.84;5015092;28;20099;-80
2023/09/30 02:33:00;;;;;;;6.82;5.72;;;;;;;14.33;100.00;93179.00;5023445;28;20042;-81
2023/09/30 02:35:26;;;;;;;8.32;5.88;;;;;;;14.38;100.00;93189.44;5021249;28;20070;-80
2023/09/30 02:37:52;;;;;;;7.18;5.80;;;;;;;14.39;100.00;93187.59;5013951;28;20030;-79
2023/09/30 02:40:19;;;;;;;10.27;5.60;;;;;;;14.34;100.00;93188.50;5017095;28;20045;-80
2023/09/30 02:42:46;;;;;;;9.80;6.05;;;;;;;14.32;100.00;93180.09;5016828;28;20516;-80
2023/09/30 02:45:12;;;;;;;7.78;6.05;;;;;;;14.30;100.00;93182.25;5015634;28;20045;-81
2023/09/30 02:47:39;;;;;;;8.75;6.07;;;;;;;14.32;100.00;93174.03;5015047;28;20029;-81
2023/09/30 02:50:08;;;;;;;7.15;5.65;;;;;;;14.32;100.00;93174.81;5013633;28;20034;-81
2023/09/30 02:52:34;;;;;;;7.72;5.38;;;;;;;14.33;100.00;93176.38;5018759;28;20037;-81
2023/09/30 02:55:02;;;;;;;6.93;5.10;;;;;;;14.32;100.00;93180.09;5030749;28;20032;-80
2023/09/30 02:57:28;;;;;;;7.68;4.88;;;;;;;14.27;100.00;93179.38;5022310;28;20030;-81
2023/09/30 02:59:54;;;;;;;7.25;5.03;;;;;;;14.27;100.00;93184.66;5013713;28;20045;-81
2023/09/30 03:02:23;;;;;;;11.40;5.18;;;;;;;14.23;100.00;93187.13;5014853;28;20429;-80
2023/09/30 03:04:50;;;;;;;8.43;5.65;;;;;;;14.22;100.00;93185.53;5013493;28;20057;-81
2023/09/30 03:07:19;;;;;;;9.15;5.38;;;;;;;14.19;100.00;93183.50;5021691;28;20113;-81
2023/09/30 03:09:45;;;;;;;9.55;5.35;;;;;;;14.18;100.00;93189.81;5021424;28;20042;-80
2023/09/30 03:12:11;;;;;;;9.10;5.78;;;;;;;14.14;100.00;93180.97;5017162;28;20036;-81
2023/09/30 03:14:37;;;;;;;8.90;6.10;;;;;;;14.10;100.00;93179.97;5026656;28;20029;-79
2023/09/30 03:17:03;;;;;;;10.18;5.75;;;;;;;14.12;100.00;93177.84;5022734;28;20383;-80
2023/09/30 03:19:29;;;;;;;9.02;5.85;;;;;;;14.13;100.00;93174.88;5026342;28;20048;-80
2023/09/30 03:21:54;;;;;;;10.15;6.30;;;;;;;14.14;100.00;93179.09;5017025;28;20080;-78
2023/09/30 03:24:21;;;;;;;9.20;5.90;;;;;;;14.18;100.00;93171.38;5017393;28;20042;-80
2023/09/30 03:26:47;;;;;;;9.02;4.80;;;;;;;14.17;100.00;93167.19;5016929;28;20387;-80
2023/09/30 03:29:13;;;;;;;7.50;5.05;;;;;;;14.22;100.00;93168.97;5002276;28;20060;-80
2023/09/30 03:31:39;;;;;;;9.00;5.20;;;;;;;14.23;100.00;93179.22;5014661;28;20034;-81
2023/09/30 03:34:06;;;;;;;6.63;4.90;;;;;;;14.22;100.00;93172.38;5022353;28;20481;-81
2023/09/30 03:36:31;;;;;;;7.60;4.80;;;;;;;14.18;100.00;93165.34;5019472;28;20040;-80
2023/09/30 03:39:04;;;;;;;7.90;5.28;;;;;;;14.21;100.00;93164.75;5023926;28;20046;-81
2023/09/30 03:41:31;;;;;;;7.65;4.63;;;;;;;14.23;100.00;93173.94;5012831;28;20041;-81
2023/09/30 03:43:57;;;;;;;8.77;4.60;;;;;;;14.22;100.00;93175.00;5013657;28;20153;-81
2023/09/30 03:46:22;;;;;;;8.27;4.90;;;;;;;14.23;100.00;93176.56;5021727;28;20069;-80
2023/09/30 03:48:48;;;;;;;7.75;4.70;;;;;;;14.21;100.00;93177.91;5013349;28;20030;-80
2023/09/30 03:51:14;;;;;;;9.48;5.38;;;;;;;14.15;100.00;93171.97;5024160;28;20049;-81
2023/09/30 03:53:41;;;;;;;8.60;5.47;;;;;;;14.18;100.00;93175.88;5018338;28;20088;-80
2023/09/30 03:56:07;;;;;;;9.18;5.07;;;;;;;14.16;100.00;93173.53;5012887;28;20410;-80
2023/09/30 03:58:33;;;;;;;6.43;4.80;;;;;;;14.12;100.00;93170.72;5020237;28;20060;-79
2023/09/30 04:01:00;;;;;;;8.18;5.15;;;;;;;14.09;100.00;93170.50;5011529;28;20042;-79
2023/09/30 04:03:29;;;;;;;9.43;4.85;;;;;;;14.09;100.00;93176.53;5012395;28;20053;-80
2023/09/30 04:05:55;;;;;;;7.60;4.82;;;;;;;13.99;100.00;93165.44;5014755;28;20457;-79
2023/09/30 04:08:22;;;;;;;7.80;5.25;;;;;;;14.00;100.00;93164.34;5012711;28;20030;-79
2023/09/30 04:10:47;;;;;;;6.13;4.70;;;;;;;13.99;100.00;93170.69;5012044;28;20049;-80
2023/09/30 04:13:13;;;;;;;6.82;4.90;;;;;;;13.96;100.00;93166.78;5013166;28;21002;-80
2023/09/30 04:15:39;;;;;;;6.32;4.63;;;;;;;13.93;100.00;93173.38;5013474;28;20090;-81
2023/09/30 04:18:05;;;;;;;6.63;4.78;;;;;;;13.94;100.00;93167.06;5013319;28;20095;-81
2023/09/30 04:20:31;;;;;;;8.65;6.00;;;;;;;13.89;100.00;93159.28;5013737;28;20100;-81
2023/09/30 04:22:57;;;;;;;11.32;5.60;;;;;;;13.92;100.00;93166.59;5013666;28;20285;-81
2023/09/30 04:25:26;;;;;;;6.45;5.10;;;;;;;13.90;100.00;93173.97;5013963;28;20560;-81
2023/09/30 04:27:52;;;;;;;8.45;5.03;;;;;;;13.90;100.00;93165.31;5012648;28;20069;-81
2023/09/30 04:30:18;;;;;;;8.75;5.20;;;;;;;13.91;100.00;93172.91;5012465;28;20513;-80
2023/09/30 04:32:44;;;;;;;7.30;5.00;;;;;;;13.88;100.00;93176.13;5012447;28;20546;-79
2023/09/30 04:35:10;;;;;;;7.78;4.90;;;;;;;13.86;100.00;93183.53;5002438;28;20493;-79
2023/09/30 04:37:37;;;;;;;7.20;4.38;;;;;;;13.80;100.00;93179.41;5014261;28;20057;-81
2023/09/30 04:40:19;;;;;;;6.72;4.60;;;;;;;13.80;100.00;93187.28;5030251;28;20029;-80
2023/09/30 04:42:49;;;;;;;7.32;5.00;;;;;;;13.81;100.00;93194.13;5012929;28;20042;-80
2023/09/30 04:45:21;;;;;;;7.85;5.22;;;;;;;13.82;100.00;93193.06;5024830;28;20061;-81
2023/09/30 04:47:48;;;;;;;9.40;5.57;;;;;;;13.77;100.00;93190.50;5022350;28;20038;-81
2023/09/30 04:50:16;;;;;;;7.85;5.20;;;;;;;13.78;100.00;93196.56;5013496;28;20424;-80
2023/09/30 04:52:42;;;;;;;10.88;5.07;;;;;;;13.78;100.00;93196.56;5020571;28;20041;-80
2023/09/30 04:55:08;;;;;;;15.00;5.45;;;;;;;13.79;100.00;93198.91;5017163;28;20037;-80
2023/09/30 04:57:34;;;;;;;7.43;5.32;;;;;;;13.78;100.00;93201.81;5023041;28;20416;-80
2023/09/30 05:00:00;;;;;;;7.05;4.93;;;;;;;13.74;100.00;93202.41;5024562;28;20033;-80
2023/09/30 05:02:28;;;;;;;7.25;4.88;;;;;;;13.71;100.00;93204.81;5013381;28;20041;-80
2023/09/30 05:04:53;;;;;;;7.35;5.15;;;;;;;13.68;100.00;93202.75;5031328;28;20048;-80
2023/09/30 05:07:21;;;;;;;7.70;4.80;;;;;;;13.70;100.00;93208.53;5006106;28;20034;-81
2023/09/30 05:09:47;;;;;;;8.75;5.20;;;;;;;13.69;100.00;93210.38;5003053;28;20117;-80
2023/09/30 05:12:13;;;;;;;5.88;4.43;;;;;;;13.68;100.00;93208.03;5013654;28;20473;-81
2023/09/30 05:14:39;;;;;;;7.57;4.65;;;;;;;13.62;100.00;93188.13;5013656;28;20041;-80
2023/09/30 05:17:05;;;;;;;6.38;4.45;;;;;;;13.68;100.00;93203.53;5032792;28;20505;-79
2023/09/30 05:19:36;;;;;;;7.03;4.50;;;;;;;13.68;100.00;93197.50;5025223;28;20037;-80
2023/09/30 05:22:02;;;;;;;8.07;5.03;;;;;;;13.69;100.00;93189.34;5013957;28;20116;-81
2023/09/30 05:24:29;;;;;;;7.80;4.22;;;;;;;13.69;100.00;93178.00;5018019;28;20129;-81
2023/09/30 05:26:55;;;;;;;8.35;4.50;;;;;;;13.69;100.00;93172.75;5017233;28;20033;-81
2023/09/30 05:29:20;;;;;;;6.43;4.05;;;;;;;13.69;100.00;93168.28;5019407;28;20556;-80
2023/09/30 05:31:47;;;;;;;6.70;4.10;;;;;;;13.70;100.00;93163.81;5026158;28;20057;-81
2023/09/30 05:34:13;;;;;;;5.88;4.25;;;;;;;13.70;100.00;93158.53;5030666;28;20497;-81
2023/09/30 05:36:38;;;;;;;5.50;4.00;;;;;;;13.71;100.00;93150.38;5017869;28;20033;-79
2023/09/30 05:39:10;;;;;;;7.57;4.03;;;;;;;13.74;100.00;93144.50;5014558;28;20089;-78
2023/09/30 05:41:38;;;;;;;6.65;4.47;;;;;;;13.81;100.00;93164.41;5020195;28;20045;-81
2023/09/30 05:44:04;;;;;;;6.10;4.00;;;;;;;13.91;100.00;93162.38;5019554;28;20613;-82
2023/09/30 05:46:32;;;;;;;5.70;3.70;;;;;;;14.48;100.00;93169.28;5011401;28;20085;-79
2023/09/30 05:48:58;;;;;;;6.00;3.30;;;;;;;15.14;100.00;93173.19;5018866;28;20045;-79
2023/09/30 05:51:23;;;;;;;7.38;3.67;;;;;;;15.78;100.00;93180.22;5001489;28;20072;-78
2023/09/30 05:53:50;;;;;;;6.53;3.55;;;;;;;16.45;100.00;93184.59;5010318;28;20117;-78
2023/09/30 05:56:16;;;;;;;6.22;3.60;;;;;;;17.04;100.00;93187.78;5019655;28;20561;-80
2023/09/30 05:58:42;;;;;;;6.05;3.20;;;;;;;17.64;100.00;93190.75;5018332;28;20034;-79
2023/09/30 06:01:10;;;;;;;5.93;3.05;;;;;;;18.33;100.00;93197.84;5013084;28;20034;-80
2023/09/30 06:03:40;;;;;;;5.88;3.00;;;;;;;18.91;100.00;93196.38;5025975;28;20120;-77
2023/09/30 06:06:15;;;;;;;7.72;3.10;;;;;;;19.50;100.00;93195.53;5032596;28;20046;-78
2023/09/30 06:08:47;;;;;;;6.60;3.53;;;;;;;19.84;100.00;93193.72;5013968;28;20514;-77
2023/09/30 06:11:24;;;;;;;6.47;3.47;;;;;;;19.56;100.00;93209.38;5010646;28;20046;-76
2023/09/30 06:13:51;;;;;;;6.75;3.50;;;;;;;19.64;100.00;93211.19;5011458;28;20037;-80
2023/09/30 06:16:17;;;;;;;8.43;4.20;;;;;;;19.53;100.00;93205.47;5020259;28;20124;-82
2023/09/30 06:18:45;;;;;;;6.22;3.65;;;;;;;19.52;100.00;93203.16;5023343;28;20508;-80
2023/09/30 06:21:11;;;;;;;6.18;3.75;;;;;;;19.37;100.00;93198.44;5020035;28;20330;-80
2023/09/30 06:23:37;;;;;;;8.43;4.05;;;;;;;19.29;100.00;93192.84;5021116;28;20042;-81
2023/09/30 06:26:03;;;;;;;7.60;3.70;;;;;;;19.42;100.00;93196.34;5020891;28;20421;-80
2023/09/30 06:28:31;;;;;;;6.10;3.90;;;;;;;19.61;100.00;93197.78;5005114;28;20525;-81
2023/09/30 06:30:57;;;;;;;8.23;4.20;;;;;;;19.36;100.00;93202.94;5021884;28;20059;-83
2023/09/30 06:33:23;;;;;;;7.25;4.00;;;;;;;19.53;100.00;93199.41;5026552;28;20501;-80
2023/09/30 06:35:52;;;;;;;8.43;4.05;;;;;;;20.44;100.00;93201.41;5021571;28;20045;-82
2023/09/30 06:38:21;;;;;;;8.05;4.03;;;;;;;21.42;100.00;93204.88;5019383;28;20038;-82
2023/09/30 06:40:47;;;;;;;6.30;3.80;;;;;;;22.24;100.00;93208.28;5019687;28;20034;-81
2023/09/30 06:43:17;;;;;;;5.43;4.00;;;;;;;22.97;100.00;93207.03;5002992;28;20111;-82
2023/09/30 06:45:44;;;;;;;6.78;4.53;;;;;;;23.60;100.00;93210.75;5004150;28;20405;-80
2023/09/30 06:48:15;;;;;;;6.40;3.47;;;;;;;23.90;100.00;93206.41;5039786;28;20029;-81
2023/09/30 06:50:50;;;;;;;6.03;3.25;;;;;;;23.38;100.00;93206.84;5042783;28;20464;-81
2023/09/30 06:53:17;;;;;;;5.40;3.22;;;;;;;23.36;100.00;93212.50;5041258;28;20033;-81
2023/09/30 06:55:43;;;;;;;5.72;3.40;;;;;;;23.60;100.00;93210.75;5024410;28;20038;-83
2023/09/30 06:58:10;;;;;;;5.57;3.47;;;;;;;23.49;100.00;93219.28;5000778;28;20029;-82
2023/09/30 07:00:42;;;;;;;8.70;3.58;;;;;;;23.87;100.00;93225.84;5019332;28;20045;-82
2023/09/30 07:03:09;;;;;;;7.18;3.65;;;;;;;24.09;100.00;93228.91;5020099;28;20048;-82
2023/09/30 07:05:36;;;;;;;5.55;3.75;;;;;;;24.79;100.00;93235.97;5020688;28;20037;-82
2023/09/30 07:08:02;;;;;;;6.00;3.60;;;;;;;24.82;100.00;93242.50;5017958;28;20053;-83
2023/09/30 07:10:31;;;;;;;13.13;3.58;;;;;;;24.98;100.00;93235.13;5018433;28;20049;-82
2023/09/30 07:12:57;;;;;;;6.20;3.38;;;;;;;24.78;100.00;93241.66;5016668;28;20045;-81
2023/09/30 07:15:23;;;;;;;5.57;3.13;;;;;;;24.34;100.00;93218.72;5018970;28;20038;-82
2023/09/30 07:17:49;;;;;;;5.43;3.20;;;;;;;23.90;100.00;93219.00;5017348;28;20097;-82
2023/09/30 07:20:15;;;;;;;6.35;3.63;;;;;;;22.79;100.00;93230.66;5019727;28;20026;-81
2023/09/30 07:22:41;;;;;;;6.30;3.40;;;;;;;21.95;100.00;93225.38;5018865;28;20486;-81
2023/09/30 07:25:08;;;;;;;8.48;3.60;;;;;;;21.97;100.00;93229.25;5019722;28;20046;-81
2023/09/30 07:27:33;;;;;;;5.60;3.55;;;;;;;22.06;100.00;93223.78;5018525;28;20061;-80
2023/09/30 07:29:59;;;;;;;7.47;4.65;;;;;;;21.85;100.00;93234.63;5016033;28;20025;-81
2023/09/30 07:32:25;;;;;;;9.25;3.60;;;;;;;21.71;100.00;93224.34;5008550;28;20045;-81
2023/09/30 07:34:51;;;;;;;5.00;3.42;;;;;;;21.59;100.00;93233.16;4998769;28;20149;-80
2023/09/30 07:37:18;;;;;;;5.85;3.42;;;;;;;21.22;100.00;93232.41;4997035;28;20034;-81
2023/09/30 07:39:44;;;;;;;6.60;3.58;;;;;;;21.21;100.00;93228.97;5014245;28;20061;-82
2023/09/30 07:42:10;;;;;;;4.53;3.22;;;;;;;21.09;100.00;93230.84;5017369;28;20505;-82
2023/09/30 07:44:38;;;;;;;8.10;3.58;;;;;;;20.69;100.00;93234.94;5018677;28;20061;-81
2023/09/30 07:47:06;;;;;;;6.45;3.65;;;;;;;20.54;100.00;93231.00;5018164;28;20046;-81
2023/09/30 07:49:35;;;;;;;6.95;3.88;;;;;;;20.24;100.00;93230.41;5017947;28;20069;-81
2023/09/30 07:52:00;;;;;;;8.27;3.55;;;;;;;20.24;100.00;93230.41;5016412;28;20034;-80
2023/09/30 07:54:26;;;;;;;7.53;3.70;;;;;;;20.24;100.00;93237.56;5035163;28;20030;-82
2023/09/30 07:56:52;;;;;;;6.65;3.53;;;;;;;20.65;100.00;93239.38;5019221;28;20042;-81
2023/09/30 07:59:17;;;;;;;7.68;3.72;;;;;;;20.53;100.00;93240.06;5015794;28;20490;-79
2023/09/30 08:01:43;;;;;;;7.80;3.88;;;;;;;20.36;100.00;93256.22;5016337;28;20038;-81
2023/09/30 08:04:09;;;;;;;6.43;4.10;;;;;;;20.64;100.00;93260.97;5024846;28;20029;-81
2023/09/30 08:06:34;;;;;;;7.40;3.75;;;;;;;20.61;100.00;93265.06;5023907;28;20084;-81
2023/09/30 08:09:00;;;;;;;7.45;3.78;;;;;;;20.68;100.00;93257.31;5019868;28;20034;-82
2023/09/30 08:11:32;;;;;;;6.45;4.20;;;;;;;20.65;100.00;93262.50;5022541;28;20046;-81
2023/09/30 08:13:58;;;;;;;5.53;3.67;;;;;;;20.45;100.00;93256.91;5021162;28;20061;-81
2023/09/30 08:16:24;;;;;;;6.80;3.70;;;;;;;20.39;100.00;93266.97;5033400;28;20041;-81
2023/09/30 08:18:50;;;;;;;7.88;4.30;;;;;;;20.66;100.00;93269.41;5033989;28;20037;-80
2023/09/30 08:21:16;;;;;;;8.75;3.70;;;;;;;20.83;100.00;93263.91;5027316;28;20026;-82
2023/09/30 08:23:42;;;;;;;5.63;4.20;;;;;;;21.16;100.00;93265.66;5008244;28;20069;-84
2023/09/30 08:26:08;;;;;;;10.23;4.20;;;;;;;21.57;100.00;93269.22;4986661;28;20426;-81
2023/09/30 08:28:35;;;;;;;7.60;4.57;;;;;;;21.67;100.00;93268.75;4997350;28;20066;-81
2023/09/30 08:31:05;;;;;;;7.63;4.20;;;;;;;21.74;100.00;93268.97;4998161;28;20049;-81
2023/09/30 08:33:31;;;;;;;9.60;4.38;;;;;;;21.65;100.00;93265.66;5031700;28;20070;-81
2023/09/30 08:36:07;;;;;;;7.25;4.18;;;;;;;21.63;100.00;93270.53;5015120;28;20038;-81
2023/09/30 08:38:37;;;;;;;6.43;4.53;;;;;;;21.73;100.00;93259.44;5017736;28;20383;-81
2023/09/30 08:41:04;;;;;;;6.28;4.10;;;;;;;21.82;100.00;93257.41;5020083;28;20117;-80
2023/09/30 08:43:33;;;;;;;7.82;4.47;;;;;;;21.37;100.00;93252.25;5012505;28;20038;-80
2023/09/30 08:46:02;;;;;;;13.27;4.18;;;;;;;21.29;100.00;93253.13;5019912;28;20521;-81
2023/09/30 08:48:30;;;;;;;6.43;3.45;;;;;;;21.58;100.00;93252.13;5024619;28;20095;-79
2023/09/30 08:50:58;;;;;;;6.63;3.30;;;;;;;22.00;100.00;93257.16;5007693;28;20033;-80
2023/09/30 08:53:24;;;;;;;6.68;4.10;;;;;;;22.27;100.00;93249.50;5038536;28;20180;-80
2023/09/30 08:55:55;;;;;;;7.20;4.13;;;;;;;22.33;100.00;93256.91;5029793;28;20045;-80
2023/09/30 08:58:26;;;;;;;7.18;3.72;;;;;;;22.12;100.00;93262.41;5039260;28;20101;-79
2023/09/30 09:00:52;;;;;;;7.55;4.32;;;;;;;21.62;100.00;93255.69;5032647;28;20044;-80
2023/09/30 09:03:20;;;;;;;9.57;4.13;;;;;;;21.05;100.00;93249.34;5046338;28;20040;-79
2023/09/30 09:05:54;;;;;;;5.78;3.50;;;;;;;21.00;100.00;93247.69;5044190;28;20064;-79
2023/09/30 09:08:23;;;;;;;5.47;3.42;;;;;;;21.18;100.00;93258.13;5036945;28;20118;-78
2023/09/30 09:11:00;;;;;;;7.85;3.92;;;;;;;21.52;100.00;93258.78;5029918;28;20541;-81
2023/09/30 09:13:49;;;;;;;6.40;3.88;;;;;;;21.50;100.00;93261.00;5021835;28;20084;-81
2023/09/30 09:16:16;;;;;;;7.43;3.85;;;;;;;22.09;100.00;93268.44;5020022;28;20038;-81
2023/09/30 09:18:42;;;;;;;6.60;3.88;;;;;;;22.32;100.00;93270.59;5021086;28;20061;-81
2023/09/30 09:21:14;;;;;;;6.35;3.92;;;;;;;22.42;100.00;93278.09;5022582;28;20044;-81
2023/09/30 09:23:44;;;;;;;5.18;3.83;;;;;;;22.86;100.00;93280.75;5021155;28;20096;-80
2023/09/30 09:26:12;;;;;;;9.38;4.13;;;;;;;22.86;100.00;93294.88;5036390;28;20095;-81
2023/09/30 09:28:42;;;;;;;8.85;3.92;;;;;;;22.92;100.00;93287.41;5020822;28;20050;-81
2023/09/30 09:31:26;;;;;;;5.88;4.22;;;;;;;22.73;100.00;93276.59;5041534;28;20033;-81
2023/09/30 09:33:53;;;;;;;5.75;3.78;;;;;;;22.64;100.00;93274.88;5040211;28;20481;-81
2023/09/30 09:36:19;;;;;;;8.32;4.30;;;;;;;22.50;100.00;93276.41;5020767;28;20042;-82
2023/09/30 09:38:45;;;;;;;6.05;3.78;;;;;;;22.45;100.00;93274.75;5018329;28;20033;-79
2023/09/30 09:41:11;;;;;;;6.32;3.78;;;;;;;22.48;100.00;93271.41;5026866;28;20033;-79
2023/09/30 09:43:40;;;;;;;5.85;3.80;;;;;;;22.55;100.00;93266.25;5023534;28;20033;-79
2023/09/30 09:46:07;;;;;;;7.45;3.80;;;;;;;22.43;100.00;93266.31;5032866;28;20041;-81
2023/09/30 09:48:37;;;;;;;7.75;3.80;;;;;;;22.31;100.00;93255.69;5020216;28;20038;-81
2023/09/30 09:51:07;;;;;;;7.05;4.35;;;;;;;22.30;100.00;93256.81;5019083;28;20030;-80
2023/09/30 09:53:37;;;;;;;9.50;4.28;;;;;;;22.31;100.00;93239.69;5022814;28;20045;-80
2023/09/30 09:56:05;;;;;;;6.65;4.35;;;;;;;22.22;100.00;93251.31;5020955;28;20472;-81
2023/09/30 09:58:34;;;;;;;6.97;4.22;;;;;;;22.44;100.00;93247.28;5024851;28;20021;-80
2023/09/30 10:01:09;;;;;;;6.78;4.28;;;;;;;22.48;100.00;93247.41;5020350;28;20037;-80
2023/09/30 10:03:36;;;;;;;7.00;4.50;;;;;;;22.17;100.00;93248.84;5017314;28;20034;-80
2023/09/30 10:06:02;;;;;;;6.50;4.18;;;;;;;22.34;100.00;93250.47;5017385;28;20501;-81
2023/09/30 10:08:35;;;;;;;7.18;4.40;;;;;;;22.50;100.00;93255.84;5018640;28;20124;-80
2023/09/30 10:11:02;;;;;;;6.15;4.25;;;;;;;22.38;100.00;93242.53;5023828;28;20037;-80
2023/09/30 10:13:50;;;;;;;6.78;4.05;;;;;;;22.54;100.00;93246.03;5015314;28;20108;-81
2023/09/30 10:16:37;;;;;;;9.32;4.35;;;;;;;22.56;100.00;93254.47;5021695;28;20037;-80
2023/09/30 10:19:25;;;;;;;8.30;4.32;;;;;;;22.46;100.00;93246.97;5024281;28;20500;-80
2023/09/30 10:22:15;;;;;;;6.85;4.53;;;;;;;22.38;100.00;93239.88;5015787;28;20038;-83
2023/09/30 10:24:42;;;;;;;6.15;3.97;;;;;;;22.73;100.00;93249.91;5009673;28;20021;-80
2023/09/30 10:27:29;;;;;;;5.35;3.60;;;;;;;22.85;100.00;93255.97;5014637;28;20122;-80
2023/09/30 10:30:10;;;;;;;5.15;4.00;;;;;;;22.77;100.00;93243.56;5020836;28;20093;-81
2023/09/30 10:32:51;;;;;;;5.85;3.88;;;;;;;23.11;100.00;93245.91;5019970;28;20030;-80
2023/09/30 10:35:17;;;;;;;6.50;4.32;;;;;;;23.08;100.00;93247.38;5013071;28;20098;-80
2023/09/30 10:37:44;;;;;;;8.10;4.00;;;;;;;23.05;100.00;93240.81;5024225;28;20033;-82
2023/09/30 10:40:26;;;;;;;8.85;4.50;;;;;;;22.83;100.00;93246.72;5018450;28;20384;-82
2023/09/30 10:42:54;;;;;;;6.47;4.05;;;;;;;22.86;100.00;93246.06;5016517;28;20044;-81
2023/09/30 10:45:38;;;;;;;5.85;4.30;;;;;;;22.84;100.00;93238.38;5014477;28;20025;-79
2023/09/30 10:48:26;;;;;;;7.53;4.18;;;;;;;22.73;100.00;93241.91;5017584;28;20037;-81
2023/09/30 10:50:57;;;;;;;7.72;4.28;;;;;;;22.81;100.00;93239.09;5024471;28;20072;-79
2023/09/30 10:53:23;;;;;;;6.65;4.00;;;;;;;22.77;100.00;93230.22;5029563;28;20528;-80
2023/09/30 10:55:59;;;;;;;9.80;5.93;;;;;;;22.95;100.00;93227.19;5015252;28;20026;-80
2023/09/30 10:58:44;;;;;;;6.22;3.83;;;;;;;22.79;100.00;93229.88;5020429;28;20076;-80
2023/09/30 11:01:12;;;;;;;5.95;3.67;;;;;;;22.98;100.00;93237.19;5026938;28;20041;-80
2023/09/30 11:03:38;;;;;;;8.27;4.38;;;;;;;22.82;100.00;93239.84;5021089;28;20026;-79
2023/09/30 11:06:04;;;;;;;6.95;4.05;;;;;;;22.62;100.00;93239.75;5032888;28;20053;-78
2023/09/30 11:08:30;;;;;;;6.60;3.67;;;;;;;22.71;100.00;93238.81;5019889;28;20072;-77
2023/09/30 11:10:56;;;;;;;5.97;3.83;;;;;;;22.75;100.00;93243.13;5016197;28;20091;-78
2023/09/30 11:13:22;;;;;;;5.88;3.92;;;;;;;22.89;100.00;93244.59;5008860;28;20693;-76
2023/09/30 11:16:01;;;;;;;6.72;3.92;;;;;;;22.93;100.00;93248.88;5011721;28;20038;-77
2023/09/30 11:18:26;;;;;;;4.90;3.65;;;;;;;22.83;100.00;93255.53;5017068;28;20504;-77
2023/09/30 11:21:06;;;;;;;7.22;3.95;;;;;;;22.87;100.00;93253.69;5015576;28;20033;-76
2023/09/30 11:23:33;;;;;;;6.35;3.70;;;;;;;23.00;100.00;93246.41;5015344;28;20056;-76
2023/09/30 11:25:59;;;;;;;7.13;3.90;;;;;;;22.99;100.00;93250.22;5012546;28;20041;-77
2023/09/30 11:28:27;;;;;;;5.65;3.88;;;;;;;22.98;100.00;93258.53;5024837;28;20536;-77